sensor_id;sensor_type;location;lat;lon;timestamp;pressure;altitude;pressure_sealevel;temperature;humidity
53932;BME280;39844;52.496;13.482;2023-04-19T00:00:30;102541.81;;;6.67;66.29
53932;BME280;39844;52.496;13.482;2023-04-19T00:02:55;102533.09;;;6.67;66.17
53932;BME280;39844;52.496;13.482;2023-04-19T00:05:21;102531.38;;;6.67;65.78
53932;BME280;39844;52.496;13.482;2023-04-19T00:07:46;102533.09;;;6.67;65.66
53932;BME280;39844;52.496;13.482;2023-04-19T00:10:11;102528.78;;;6.67;65.94
53932;BME280;39844;52.496;13.482;2023-04-19T00:12:37;102534.91;;;6.68;65.39
53932;BME280;39844;52.496;13.482;2023-04-19T00:15:02;102527.97;;;6.68;64.92
53932;BME280;39844;52.496;13.482;2023-04-19T00:17:28;102531.56;;;6.72;65.19
53932;BME280;39844;52.496;13.482;2023-04-19T00:19:53;102526.44;;;6.73;64.05
53932;BME280;39844;52.496;13.482;2023-04-19T00:22:18;102524.69;;;6.74;63.21
53932;BME280;39844;52.496;13.482;2023-04-19T00:24:44;102523.06;;;6.76;62.97
53932;BME280;39844;52.496;13.482;2023-04-19T00:27:09;102524.00;;;6.78;63.20
53932;BME280;39844;52.496;13.482;2023-04-19T00:29:34;102524.00;;;6.78;62.09
53932;BME280;39844;52.496;13.482;2023-04-19T00:31:59;102521.38;;;6.78;62.03
53932;BME280;39844;52.496;13.482;2023-04-19T00:34:25;102519.72;;;6.80;62.25
53932;BME280;39844;52.496;13.482;2023-04-19T00:36:51;102513.56;;;6.78;60.79
53932;BME280;39844;52.496;13.482;2023-04-19T00:39:16;102523.16;;;6.79;60.86
53932;BME280;39844;52.496;13.482;2023-04-19T00:41:42;102526.63;;;6.78;60.09
53932;BME280;39844;52.496;13.482;2023-04-19T00:44:07;102528.31;;;6.77;60.45
53932;BME280;39844;52.496;13.482;2023-04-19T00:46:35;102525.66;;;6.76;60.27
53932;BME280;39844;52.496;13.482;2023-04-19T00:49:01;102523.81;;;6.73;60.29
53932;BME280;39844;52.496;13.482;2023-04-19T00:51:26;102520.22;;;6.71;60.48
53932;BME280;39844;52.496;13.482;2023-04-19T00:53:52;102522.75;;;6.68;60.56
53932;BME280;39844;52.496;13.482;2023-04-19T00:56:18;102522.63;;;6.65;60.24
53932;BME280;39844;52.496;13.482;2023-04-19T00:58:45;102533.88;;;6.64;60.49
53932;BME280;39844;52.496;13.482;2023-04-19T01:01:11;102525.03;;;6.61;60.95
53932;BME280;39844;52.496;13.482;2023-04-19T01:03:36;102524.84;;;6.56;60.55
53932;BME280;39844;52.496;13.482;2023-04-19T01:06:01;102523.84;;;6.53;60.20
53932;BME280;39844;52.496;13.482;2023-04-19T01:08:27;102529.81;;;6.50;61.05
53932;BME280;39844;52.496;13.482;2023-04-19T01:10:52;102526.19;;;6.47;61.38
53932;BME280;39844;52.496;13.482;2023-04-19T01:13:17;102523.38;;;6.42;60.93
53932;BME280;39844;52.496;13.482;2023-04-19T01:15:43;102528.47;;;6.39;60.96
53932;BME280;39844;52.496;13.482;2023-04-19T01:18:08;102530.06;;;6.35;60.53
53932;BME280;39844;52.496;13.482;2023-04-19T01:20:33;102530.75;;;6.31;60.53
53932;BME280;39844;52.496;13.482;2023-04-19T01:22:58;102529.72;;;6.28;60.76
53932;BME280;39844;52.496;13.482;2023-04-19T01:25:24;102523.41;;;6.23;60.66
53932;BME280;39844;52.496;13.482;2023-04-19T01:27:49;102521.47;;;6.17;60.75
53932;BME280;39844;52.496;13.482;2023-04-19T01:30:14;102523.94;;;6.14;60.72
53932;BME280;39844;52.496;13.482;2023-04-19T01:32:40;102518.53;;;6.10;60.87
53932;BME280;39844;52.496;13.482;2023-04-19T01:35:05;102515.72;;;6.05;61.32
53932;BME280;39844;52.496;13.482;2023-04-19T01:37:34;102521.63;;;6.01;61.31
53932;BME280;39844;52.496;13.482;2023-04-19T01:39:59;102516.22;;;5.97;61.18
53932;BME280;39844;52.496;13.482;2023-04-19T01:42:24;102517.78;;;5.93;61.26
53932;BME280;39844;52.496;13.482;2023-04-19T01:44:50;102516.78;;;5.90;61.73
53932;BME280;39844;52.496;13.482;2023-04-19T01:47:15;102512.25;;;5.86;61.93
53932;BME280;39844;52.496;13.482;2023-04-19T01:49:40;102508.59;;;5.82;61.90
53932;BME280;39844;52.496;13.482;2023-04-19T01:52:06;102513.69;;;5.79;61.98
53932;BME280;39844;52.496;13.482;2023-04-19T01:54:31;102516.09;;;5.74;62.34
53932;BME280;39844;52.496;13.482;2023-04-19T01:56:56;102509.00;;;5.72;62.57
53932;BME280;39844;52.496;13.482;2023-04-19T01:59:21;102507.09;;;5.68;62.63
53932;BME280;39844;52.496;13.482;2023-04-19T02:01:47;102507.84;;;5.65;62.71
53932;BME280;39844;52.496;13.482;2023-04-19T02:04:12;102511.16;;;5.61;62.99
53932;BME280;39844;52.496;13.482;2023-04-19T02:06:37;102504.00;;;5.57;62.94
53932;BME280;39844;52.496;13.482;2023-04-19T02:09:03;102505.59;;;5.54;63.12
53932;BME280;39844;52.496;13.482;2023-04-19T02:11:28;102506.34;;;5.51;63.35
53932;BME280;39844;52.496;13.482;2023-04-19T02:13:53;102504.50;;;5.49;63.25
53932;BME280;39844;52.496;13.482;2023-04-19T02:16:19;102497.44;;;5.46;63.38
53932;BME280;39844;52.496;13.482;2023-04-19T02:18:44;102504.22;;;5.43;63.67
53932;BME280;39844;52.496;13.482;2023-04-19T02:21:10;102494.50;;;5.39;64.09
53932;BME280;39844;52.496;13.482;2023-04-19T02:23:35;102503.88;;;5.35;64.19
53932;BME280;39844;52.496;13.482;2023-04-19T02:26:01;102499.34;;;5.31;64.69
53932;BME280;39844;52.496;13.482;2023-04-19T02:28:26;102493.16;;;5.29;65.02
53932;BME280;39844;52.496;13.482;2023-04-19T02:30:51;102492.06;;;5.24;65.13
53932;BME280;39844;52.496;13.482;2023-04-19T02:33:16;102491.03;;;5.21;65.39
53932;BME280;39844;52.496;13.482;2023-04-19T02:35:42;102487.41;;;5.17;65.72
53932;BME280;39844;52.496;13.482;2023-04-19T02:38:07;102486.34;;;5.13;65.81
53932;BME280;39844;52.496;13.482;2023-04-19T02:40:32;102484.38;;;5.08;66.47
53932;BME280;39844;52.496;13.482;2023-04-19T02:42:58;102482.53;;;5.05;66.37
53932;BME280;39844;52.496;13.482;2023-04-19T02:45:23;102476.28;;;5.02;66.68
53932;BME280;39844;52.496;13.482;2023-04-19T02:47:48;102481.44;;;5.00;66.62
53932;BME280;39844;52.496;13.482;2023-04-19T02:50:15;102483.88;;;4.97;66.92
53932;BME280;39844;52.496;13.482;2023-04-19T02:52:41;102485.53;;;4.95;67.50
53932;BME280;39844;52.496;13.482;2023-04-19T02:55:07;102481.94;;;4.93;67.68
53932;BME280;39844;52.496;13.482;2023-04-19T02:57:32;102475.78;;;4.91;67.82
53932;BME280;39844;52.496;13.482;2023-04-19T02:59:58;102467.91;;;4.90;68.17
53932;BME280;39844;52.496;13.482;2023-04-19T03:02:26;102466.94;;;4.88;68.54
53932;BME280;39844;52.496;13.482;2023-04-19T03:04:51;102459.06;;;4.86;68.54
53932;BME280;39844;52.496;13.482;2023-04-19T03:07:17;102471.91;;;4.83;68.89
53932;BME280;39844;52.496;13.482;2023-04-19T03:09:42;102470.16;;;4.82;69.37
53932;BME280;39844;52.496;13.482;2023-04-19T03:12:08;102467.41;;;4.79;69.98
53932;BME280;39844;52.496;13.482;2023-04-19T03:14:33;102463.91;;;4.79;70.04
53932;BME280;39844;52.496;13.482;2023-04-19T03:16:58;102463.84;;;4.77;70.25
53932;BME280;39844;52.496;13.482;2023-04-19T03:19:24;102457.59;;;4.74;70.44
53932;BME280;39844;52.496;13.482;2023-04-19T03:21:49;102454.03;;;4.72;70.49
53932;BME280;39844;52.496;13.482;2023-04-19T03:24:15;102452.97;;;4.68;70.98
53932;BME280;39844;52.496;13.482;2023-04-19T03:26:40;102459.81;;;4.66;70.97
53932;BME280;39844;52.496;13.482;2023-04-19T03:29:05;102454.47;;;4.63;71.27
53932;BME280;39844;52.496;13.482;2023-04-19T03:31:31;102452.72;;;4.62;71.35
53932;BME280;39844;52.496;13.482;2023-04-19T03:33:56;102435.16;;;4.58;71.58
53932;BME280;39844;52.496;13.482;2023-04-19T03:36:21;102435.09;;;4.57;72.05
53932;BME280;39844;52.496;13.482;2023-04-19T03:38:47;102442.81;;;4.55;72.21
53932;BME280;39844;52.496;13.482;2023-04-19T03:41:23;102439.25;;;4.53;72.48
53932;BME280;39844;52.496;13.482;2023-04-19T03:43:49;102436.66;;;4.53;72.55
53932;BME280;39844;52.496;13.482;2023-04-19T03:46:14;102432.19;;;4.51;72.98
53932;BME280;39844;52.496;13.482;2023-04-19T03:48:39;102435.69;;;4.51;73.24
53932;BME280;39844;52.496;13.482;2023-04-19T03:51:05;102437.41;;;4.51;73.53
53932;BME280;39844;52.496;13.482;2023-04-19T03:53:30;102439.19;;;4.52;73.75
53932;BME280;39844;52.496;13.482;2023-04-19T03:55:57;102433.09;;;4.51;74.05
53932;BME280;39844;52.496;13.482;2023-04-19T03:58:23;102433.09;;;4.51;74.40
53932;BME280;39844;52.496;13.482;2023-04-19T04:00:48;102433.91;;;4.50;74.85
53932;BME280;39844;52.496;13.482;2023-04-19T04:03:13;102428.69;;;4.50;74.99
53932;BME280;39844;52.496;13.482;2023-04-19T04:05:39;102428.63;;;4.48;75.33
53932;BME280;39844;52.496;13.482;2023-04-19T04:08:04;102428.59;;;4.47;75.44
53932;BME280;39844;52.496;13.482;2023-04-19T04:10:29;102426.78;;;4.46;75.49
53932;BME280;39844;52.496;13.482;2023-04-19T04:12:54;102425.00;;;4.45;76.24
53932;BME280;39844;52.496;13.482;2023-04-19T04:15:20;102427.59;;;4.45;76.29
53932;BME280;39844;52.496;13.482;2023-04-19T04:17:45;102425.81;;;4.44;76.70
53932;BME280;39844;52.496;13.482;2023-04-19T04:20:11;102420.63;;;4.44;76.51
53932;BME280;39844;52.496;13.482;2023-04-19T04:22:40;102416.16;;;4.41;76.69
53932;BME280;39844;52.496;13.482;2023-04-19T04:25:06;102416.16;;;4.41;77.22
53932;BME280;39844;52.496;13.482;2023-04-19T04:27:31;102421.28;;;4.40;77.57
53932;BME280;39844;52.496;13.482;2023-04-19T04:29:56;102416.09;;;4.40;77.67
53932;BME280;39844;52.496;13.482;2023-04-19T04:32:22;102418.69;;;4.40;78.03
53932;BME280;39844;52.496;13.482;2023-04-19T04:34:47;102407.31;;;4.38;78.52
53932;BME280;39844;52.496;13.482;2023-04-19T04:37:12;102416.03;;;4.38;78.49
53932;BME280;39844;52.496;13.482;2023-04-19T04:39:38;102409.03;;;4.37;78.84
53932;BME280;39844;52.496;13.482;2023-04-19T04:42:04;102407.31;;;4.38;79.28
53932;BME280;39844;52.496;13.482;2023-04-19T04:44:30;102406.53;;;4.39;79.55
53932;BME280;39844;52.496;13.482;2023-04-19T04:46:55;102406.53;;;4.39;79.85
53932;BME280;39844;52.496;13.482;2023-04-19T04:49:20;102411.88;;;4.42;79.93
53932;BME280;39844;52.496;13.482;2023-04-19T04:51:46;102404.13;;;4.43;80.38
53932;BME280;39844;52.496;13.482;2023-04-19T04:54:11;102400.72;;;4.44;80.78
53932;BME280;39844;52.496;13.482;2023-04-19T04:56:36;102396.47;;;4.46;81.02
53932;BME280;39844;52.496;13.482;2023-04-19T04:59:02;102392.31;;;4.50;81.51
53932;BME280;39844;52.496;13.482;2023-04-19T05:01:27;102393.28;;;4.52;81.31
53932;BME280;39844;52.496;13.482;2023-04-19T05:03:52;102394.25;;;4.54;81.43
53932;BME280;39844;52.496;13.482;2023-04-19T05:06:18;102403.91;;;4.57;81.14
53932;BME280;39844;52.496;13.482;2023-04-19T05:08:43;102390.97;;;4.58;81.37
53932;BME280;39844;52.496;13.482;2023-04-19T05:11:09;102389.41;;;4.62;81.20
53932;BME280;39844;52.496;13.482;2023-04-19T05:13:34;102380.84;;;4.64;81.52
53932;BME280;39844;52.496;13.482;2023-04-19T05:15:59;102378.41;;;4.67;81.24
53932;BME280;39844;52.496;13.482;2023-04-19T05:18:25;102381.97;;;4.69;80.99
53932;BME280;39844;52.496;13.482;2023-04-19T05:20:50;102376.97;;;4.74;81.11
53932;BME280;39844;52.496;13.482;2023-04-19T05:23:15;102377.16;;;4.78;80.93
53932;BME280;39844;52.496;13.482;2023-04-19T05:25:40;102377.31;;;4.81;80.65
53932;BME280;39844;52.496;13.482;2023-04-19T05:28:06;102364.50;;;4.86;80.51
53932;BME280;39844;52.496;13.482;2023-04-19T05:30:31;102373.41;;;4.91;80.28
53932;BME280;39844;52.496;13.482;2023-04-19T05:32:56;102368.44;;;4.95;80.31
53932;BME280;39844;52.496;13.482;2023-04-19T05:35:22;102365.06;;;4.98;79.69
53932;BME280;39844;52.496;13.482;2023-04-19T05:37:47;102366.09;;;5.01;79.47
53932;BME280;39844;52.496;13.482;2023-04-19T05:40:12;102354.88;;;5.02;79.30
53932;BME280;39844;52.496;13.482;2023-04-19T05:42:38;102352.53;;;5.08;79.20
53932;BME280;39844;52.496;13.482;2023-04-19T05:45:04;102364.88;;;5.13;78.72
53932;BME280;39844;52.496;13.482;2023-04-19T05:47:29;102365.00;;;5.16;78.80
53932;BME280;39844;52.496;13.482;2023-04-19T05:49:54;102358.28;;;5.21;78.99
53932;BME280;39844;52.496;13.482;2023-04-19T05:52:19;102360.19;;;5.25;78.50
53932;BME280;39844;52.496;13.482;2023-04-19T05:54:45;102365.69;;;5.31;78.78
53932;BME280;39844;52.496;13.482;2023-04-19T05:57:10;102358.88;;;5.34;78.01
53932;BME280;39844;52.496;13.482;2023-04-19T05:59:35;102364.28;;;5.39;77.94
53932;BME280;39844;52.496;13.482;2023-04-19T06:02:01;102354.00;;;5.42;77.69
53932;BME280;39844;52.496;13.482;2023-04-19T06:04:26;102357.00;;;5.51;77.48
53932;BME280;39844;52.496;13.482;2023-04-19T06:06:51;102356.25;;;5.53;77.09
53932;BME280;39844;52.496;13.482;2023-04-19T06:09:17;102354.78;;;5.60;77.28
53932;BME280;39844;52.496;13.482;2023-04-19T06:11:42;102351.53;;;5.65;77.10
53932;BME280;39844;52.496;13.482;2023-04-19T06:14:07;102349.25;;;5.73;76.17
53932;BME280;39844;52.496;13.482;2023-04-19T06:16:32;102349.53;;;5.79;76.35
53932;BME280;39844;52.496;13.482;2023-04-19T06:18:58;102360.94;;;5.83;75.51
53932;BME280;39844;52.496;13.482;2023-04-19T06:21:23;102347.19;;;5.85;74.94
53932;BME280;39844;52.496;13.482;2023-04-19T06:23:48;102351.72;;;5.89;74.82
53932;BME280;39844;52.496;13.482;2023-04-19T06:26:14;102361.56;;;5.96;74.92
53932;BME280;39844;52.496;13.482;2023-04-19T06:28:39;102347.00;;;6.01;73.96
53932;BME280;39844;52.496;13.482;2023-04-19T06:31:04;102336.09;;;6.11;74.11
53932;BME280;39844;52.496;13.482;2023-04-19T06:33:30;102346.88;;;6.20;73.82
53932;BME280;39844;52.496;13.482;2023-04-19T06:35:55;102335.03;;;6.28;72.96
53932;BME280;39844;52.496;13.482;2023-04-19T06:38:23;102334.47;;;6.35;73.14
53932;BME280;39844;52.496;13.482;2023-04-19T06:40:48;102338.25;;;6.44;71.97
53932;BME280;39844;52.496;13.482;2023-04-19T06:43:13;102339.44;;;6.52;71.27
53932;BME280;39844;52.496;13.482;2023-04-19T06:45:39;102328.22;;;6.54;69.96
53932;BME280;39844;52.496;13.482;2023-04-19T06:48:04;102321.59;;;6.62;70.25
53932;BME280;39844;52.496;13.482;2023-04-19T06:50:29;102320.06;;;6.69;69.67
53932;BME280;39844;52.496;13.482;2023-04-19T06:52:55;102317.84;;;6.78;69.22
53932;BME280;39844;52.496;13.482;2023-04-19T06:55:20;102311.22;;;6.87;68.83
53932;BME280;39844;52.496;13.482;2023-04-19T06:57:45;102315.91;;;6.96;67.59
53932;BME280;39844;52.496;13.482;2023-04-19T07:00:11;102304.72;;;7.00;66.99
53932;BME280;39844;52.496;13.482;2023-04-19T07:02:36;102298.16;;;7.11;66.95
53932;BME280;39844;52.496;13.482;2023-04-19T07:05:02;102294.97;;;7.20;65.85
53932;BME280;39844;52.496;13.482;2023-04-19T07:07:27;102289.06;;;7.25;65.88
53932;BME280;39844;52.496;13.482;2023-04-19T07:09:52;102293.78;;;7.35;65.13
53932;BME280;39844;52.496;13.482;2023-04-19T07:12:18;102297.59;;;7.45;64.60
53932;BME280;39844;52.496;13.482;2023-04-19T07:14:43;102286.56;;;7.53;63.61
53932;BME280;39844;52.496;13.482;2023-04-19T07:17:08;102276.38;;;7.61;63.27
53932;BME280;39844;52.496;13.482;2023-04-19T07:19:34;102274.00;;;7.69;61.73
53932;BME280;39844;52.496;13.482;2023-04-19T07:21:59;102271.69;;;7.78;61.80
53932;BME280;39844;52.496;13.482;2023-04-19T07:24:24;102273.69;;;7.86;61.44
53932;BME280;39844;52.496;13.482;2023-04-19T07:26:49;102265.28;;;7.95;60.56
53932;BME280;39844;52.496;13.482;2023-04-19T07:29:15;102265.53;;;8.04;60.15
53932;BME280;39844;52.496;13.482;2023-04-19T07:31:40;102264.13;;;8.13;59.83
53932;BME280;39844;52.496;13.482;2023-04-19T07:34:05;102253.97;;;8.24;59.46
53932;BME280;39844;52.496;13.482;2023-04-19T07:36:31;102246.34;;;8.30;57.95
53932;BME280;39844;52.496;13.482;2023-04-19T07:38:56;102245.63;;;8.36;58.17
53932;BME280;39844;52.496;13.482;2023-04-19T07:41:21;102253.72;;;8.43;58.04
53932;BME280;39844;52.496;13.482;2023-04-19T07:43:46;102251.25;;;8.49;56.73
53932;BME280;39844;52.496;13.482;2023-04-19T07:46:13;102259.28;;;8.55;56.83
53932;BME280;39844;52.496;13.482;2023-04-19T07:48:38;102240.28;;;8.61;56.28
53932;BME280;39844;52.496;13.482;2023-04-19T07:51:11;102231.72;;;8.68;56.14
53932;BME280;39844;52.496;13.482;2023-04-19T07:53:38;102229.44;;;8.80;56.32
53932;BME280;39844;52.496;13.482;2023-04-19T07:56:04;102240.19;;;8.89;55.90
53932;BME280;39844;52.496;13.482;2023-04-19T07:58:29;102248.16;;;8.94;55.04
53932;BME280;39844;52.496;13.482;2023-04-19T08:00:54;102228.19;;;8.97;53.29
53932;BME280;39844;52.496;13.482;2023-04-19T08:03:20;102231.00;;;9.05;53.08
53932;BME280;39844;52.496;13.482;2023-04-19T08:05:45;102217.22;;;9.12;52.92
53932;BME280;39844;52.496;13.482;2023-04-19T08:08:10;102207.75;;;9.17;53.48
53932;BME280;39844;52.496;13.482;2023-04-19T08:10:35;102211.47;;;9.25;52.70
53932;BME280;39844;52.496;13.482;2023-04-19T08:13:01;102207.22;;;9.30;52.53
53932;BME280;39844;52.496;13.482;2023-04-19T08:15:26;102210.91;;;9.38;51.62
53932;BME280;39844;52.496;13.482;2023-04-19T08:17:51;102214.53;;;9.43;51.55
53932;BME280;39844;52.496;13.482;2023-04-19T08:20:17;102211.22;;;9.50;50.94
53932;BME280;39844;52.496;13.482;2023-04-19T08:22:42;102214.81;;;9.55;51.20
53932;BME280;39844;52.496;13.482;2023-04-19T08:25:08;102234.16;;;9.60;51.02
53932;BME280;39844;52.496;13.482;2023-04-19T08:27:34;102223.81;;;9.66;51.09
53932;BME280;39844;52.496;13.482;2023-04-19T08:29:59;102216.94;;;9.71;50.80
53932;BME280;39844;52.496;13.482;2023-04-19T08:32:25;102214.47;;;9.77;50.93
53932;BME280;39844;52.496;13.482;2023-04-19T08:34:50;102214.56;;;9.80;50.78
53932;BME280;39844;52.496;13.482;2023-04-19T08:37:15;102212.09;;;9.86;51.21
53932;BME280;39844;52.496;13.482;2023-04-19T08:39:42;102211.47;;;9.98;50.76
53932;BME280;39844;52.496;13.482;2023-04-19T08:42:08;102212.28;;;9.97;50.13
53932;BME280;39844;52.496;13.482;2023-04-19T08:44:35;102200.06;;;9.96;50.68
53932;BME280;39844;52.496;13.482;2023-04-19T08:47:01;102196.69;;;10.01;50.04
53932;BME280;39844;52.496;13.482;2023-04-19T08:49:30;102207.28;;;10.07;50.13
53932;BME280;39844;52.496;13.482;2023-04-19T08:51:58;102183.88;;;10.15;49.94
53932;BME280;39844;52.496;13.482;2023-04-19T08:54:27;102192.81;;;10.23;50.30
53932;BME280;39844;52.496;13.482;2023-04-19T08:56:53;102189.56;;;10.36;49.89
53932;BME280;39844;52.496;13.482;2023-04-19T08:59:18;102185.47;;;10.49;49.55
53932;BME280;39844;52.496;13.482;2023-04-19T09:01:43;102179.66;;;10.65;49.75
53932;BME280;39844;52.496;13.482;2023-04-19T09:04:09;102174.78;;;10.86;49.96
53932;BME280;39844;52.496;13.482;2023-04-19T09:06:38;102161.88;;;10.98;48.84
53932;BME280;39844;52.496;13.482;2023-04-19T09:11:39;102163.50;;;10.90;47.81
53932;BME280;39844;52.496;13.482;2023-04-19T09:14:08;102163.50;;;10.90;48.18
53932;BME280;39844;52.496;13.482;2023-04-19T09:16:34;102166.91;;;10.86;48.40
53932;BME280;39844;52.496;13.482;2023-04-19T09:19:00;102147.59;;;10.84;47.95
53932;BME280;39844;52.496;13.482;2023-04-19T09:21:29;102140.75;;;10.91;48.51
53932;BME280;39844;52.496;13.482;2023-04-19T09:23:55;102152.16;;;10.94;46.94
53932;BME280;39844;52.496;13.482;2023-04-19T09:26:20;102153.06;;;10.96;46.70
53932;BME280;39844;52.496;13.482;2023-04-19T09:29:02;102134.91;;;11.08;47.74
53932;BME280;39844;52.496;13.482;2023-04-19T09:31:29;102141.25;;;11.21;47.12
53932;BME280;39844;52.496;13.482;2023-04-19T09:33:54;102127.22;;;11.20;46.76
53932;BME280;39844;52.496;13.482;2023-04-19T09:36:31;102137.06;;;11.33;47.65
53932;BME280;39844;52.496;13.482;2023-04-19T09:38:57;102137.97;;;11.35;45.92
53932;BME280;39844;52.496;13.482;2023-04-19T09:41:24;102136.09;;;11.28;47.15
53932;BME280;39844;52.496;13.482;2023-04-19T09:43:49;102121.25;;;11.30;47.71
53932;BME280;39844;52.496;13.482;2023-04-19T09:46:44;102122.25;;;11.38;46.89
53932;BME280;39844;52.496;13.482;2023-04-19T09:51:50;102122.78;;;11.72;46.12
53932;BME280;39844;52.496;13.482;2023-04-19T09:54:17;102127.78;;;11.60;46.22
53932;BME280;39844;52.496;13.482;2023-04-19T09:56:43;102120.69;;;11.53;45.92
53932;BME280;39844;52.496;13.482;2023-04-19T09:59:09;102110.16;;;11.53;46.86
53932;BME280;39844;52.496;13.482;2023-04-19T10:01:38;102120.63;;;11.50;47.15
53932;BME280;39844;52.496;13.482;2023-04-19T10:04:05;102112.69;;;11.47;46.31
53932;BME280;39844;52.496;13.482;2023-04-19T10:06:30;102118.84;;;11.47;46.03
53932;BME280;39844;52.496;13.482;2023-04-19T10:08:57;102110.88;;;11.41;45.85
53932;BME280;39844;52.496;13.482;2023-04-19T10:11:25;102112.69;;;11.47;46.11
53932;BME280;39844;52.496;13.482;2023-04-19T10:13:58;102105.00;;;11.59;46.29
53932;BME280;39844;52.496;13.482;2023-04-19T10:16:25;102096.31;;;11.64;46.21
53932;BME280;39844;52.496;13.482;2023-04-19T10:18:51;102096.41;;;11.69;46.67
53932;BME280;39844;52.496;13.482;2023-04-19T10:21:18;102070.16;;;11.75;45.82
53932;BME280;39844;52.496;13.482;2023-04-19T10:23:44;102100.09;;;11.81;45.80
53932;BME280;39844;52.496;13.482;2023-04-19T10:26:10;102080.88;;;11.87;45.28
53932;BME280;39844;52.496;13.482;2023-04-19T10:28:35;102081.78;;;11.89;44.90
53932;BME280;39844;52.496;13.482;2023-04-19T10:31:03;102082.81;;;12.03;45.55
53932;BME280;39844;52.496;13.482;2023-04-19T10:33:30;102091.53;;;12.00;44.27
53932;BME280;39844;52.496;13.482;2023-04-19T10:35:58;102088.06;;;12.03;44.83
53932;BME280;39844;52.496;13.482;2023-04-19T10:38:48;102089.84;;;12.04;44.33
53932;BME280;39844;52.496;13.482;2023-04-19T10:41:15;102082.00;;;12.07;43.95
53932;BME280;39844;52.496;13.482;2023-04-19T10:51:15;102072.16;;;12.75;44.11
53932;BME280;39844;52.496;13.482;2023-04-19T10:56:10;102068.81;;;12.97;42.64
53932;BME280;39844;52.496;13.482;2023-04-19T11:01:37;102072.22;;;12.84;42.92
53932;BME280;39844;52.496;13.482;2023-04-19T11:04:03;102065.09;;;12.71;43.74
53932;BME280;39844;52.496;13.482;2023-04-19T11:06:29;102069.66;;;12.90;44.36
53932;BME280;39844;52.496;13.482;2023-04-19T11:08:54;102050.44;;;13.05;43.85
53932;BME280;39844;52.496;13.482;2023-04-19T11:11:20;102054.81;;;13.04;43.42
53932;BME280;39844;52.496;13.482;2023-04-19T11:13:47;102066.31;;;13.06;43.56
53932;BME280;39844;52.496;13.482;2023-04-19T11:16:12;102052.31;;;13.18;43.41
53932;BME280;39844;52.496;13.482;2023-04-19T11:18:37;102049.88;;;13.50;43.18
53932;BME280;39844;52.496;13.482;2023-04-19T11:21:03;102050.81;;;13.59;42.75
53932;BME280;39844;52.496;13.482;2023-04-19T11:23:28;102052.56;;;13.63;42.18
53932;BME280;39844;52.496;13.482;2023-04-19T11:25:54;102044.66;;;13.68;42.32
53932;BME280;39844;52.496;13.482;2023-04-19T11:28:20;102040.25;;;13.59;41.65
53932;BME280;39844;52.496;13.482;2023-04-19T11:30:45;102045.47;;;13.50;42.56
53932;BME280;39844;52.496;13.482;2023-04-19T11:33:11;102039.25;;;13.41;42.88
53932;BME280;39844;52.496;13.482;2023-04-19T11:35:36;102037.53;;;13.41;42.71
53932;BME280;39844;52.496;13.482;2023-04-19T11:38:01;102039.28;;;13.39;42.97
53932;BME280;39844;52.496;13.482;2023-04-19T11:40:27;102026.97;;;13.43;41.96
53932;BME280;39844;52.496;13.482;2023-04-19T11:42:54;102033.97;;;13.32;42.29
53932;BME280;39844;52.496;13.482;2023-04-19T11:45:36;102039.09;;;13.10;42.15
53932;BME280;39844;52.496;13.482;2023-04-19T11:48:03;102038.09;;;12.96;42.65
53932;BME280;39844;52.496;13.482;2023-04-19T11:52:55;102017.78;;;12.83;43.31
53932;BME280;39844;52.496;13.482;2023-04-19T11:55:20;102023.81;;;12.72;43.17
53932;BME280;39844;52.496;13.482;2023-04-19T11:57:46;102013.25;;;12.65;43.18
53932;BME280;39844;52.496;13.482;2023-04-19T12:00:12;102026.47;;;12.73;43.35
53932;BME280;39844;52.496;13.482;2023-04-19T12:02:39;102007.19;;;12.77;42.06
53932;BME280;39844;52.496;13.482;2023-04-19T12:05:12;101998.50;;;12.92;41.89
53932;BME280;39844;52.496;13.482;2023-04-19T12:08:01;102001.25;;;13.07;42.21
53932;BME280;39844;52.496;13.482;2023-04-19T12:10:27;102003.16;;;13.24;41.92
53932;BME280;39844;52.496;13.482;2023-04-19T12:12:52;101998.75;;;13.28;40.80
53932;BME280;39844;52.496;13.482;2023-04-19T12:15:18;102007.56;;;13.27;40.75
53932;BME280;39844;52.496;13.482;2023-04-19T12:18:00;101995.19;;;13.18;42.19
53932;BME280;39844;52.496;13.482;2023-04-19T12:20:33;102004.84;;;13.18;43.00
53932;BME280;39844;52.496;13.482;2023-04-19T12:22:58;102007.41;;;13.07;41.62
53932;BME280;39844;52.496;13.482;2023-04-19T12:25:30;101991.47;;;12.91;41.27
53932;BME280;39844;52.496;13.482;2023-04-19T12:27:56;101996.66;;;12.82;41.87
53932;BME280;39844;52.496;13.482;2023-04-19T12:30:21;101993.13;;;12.78;42.63
53932;BME280;39844;52.496;13.482;2023-04-19T12:32:47;101983.50;;;12.80;42.30
53932;BME280;39844;52.496;13.482;2023-04-19T12:35:12;101978.28;;;12.88;43.13
53932;BME280;39844;52.496;13.482;2023-04-19T12:37:37;101974.88;;;13.04;42.91
53932;BME280;39844;52.496;13.482;2023-04-19T12:40:03;101977.56;;;13.14;42.79
53932;BME280;39844;52.496;13.482;2023-04-19T12:42:28;101977.66;;;13.23;43.15
53932;BME280;39844;52.496;13.482;2023-04-19T12:44:53;101961.88;;;13.40;43.13
53932;BME280;39844;52.496;13.482;2023-04-19T12:47:19;101968.97;;;13.50;42.14
53932;BME280;39844;52.496;13.482;2023-04-19T12:49:44;101961.91;;;13.46;41.74
53932;BME280;39844;52.496;13.482;2023-04-19T12:52:09;101951.34;;;13.43;42.41
53932;BME280;39844;52.496;13.482;2023-04-19T12:54:34;101955.78;;;13.50;42.92
53932;BME280;39844;52.496;13.482;2023-04-19T12:57:00;101953.19;;;13.62;41.59
53932;BME280;39844;52.496;13.482;2023-04-19T12:59:25;101942.63;;;13.65;40.76
53932;BME280;39844;52.496;13.482;2023-04-19T13:01:50;101943.50;;;13.61;40.78